createdAt,value
2018-08-11T00:00:34.954Z,99297.00
2018-08-11T00:03:04.698Z,99296.00
2018-08-11T00:05:34.253Z,99300.00
2018-08-11T00:08:04.400Z,99292.00
2018-08-11T00:10:33.954Z,99299.00
2018-08-11T00:13:04.374Z,99296.00
2018-08-11T00:15:34.202Z,99300.00
2018-08-11T00:18:05.094Z,99294.00
2018-08-11T00:20:35.041Z,99291.00
2018-08-11T00:23:04.913Z,99291.00
2018-08-11T00:25:34.673Z,99289.00
2018-08-11T00:28:04.374Z,99289.00
2018-08-11T00:30:33.834Z,99295.00
2018-08-11T00:33:03.556Z,99300.00
2018-08-11T00:35:33.235Z,99311.00
2018-08-11T00:38:02.887Z,99305.00
2018-08-11T00:40:32.633Z,99311.00
2018-08-11T00:43:02.473Z,99308.00
2018-08-11T00:45:32.374Z,99307.00
2018-08-11T00:48:02.158Z,99320.00
2018-08-11T00:50:36.214Z,99315.00
2018-08-11T00:53:07.274Z,99311.00
2018-08-11T00:55:36.934Z,99314.00
2018-08-11T00:58:06.693Z,99310.00
2018-08-11T01:00:36.214Z,99307.00
2018-08-11T01:03:06.414Z,99304.00
2018-08-11T01:05:36.034Z,99296.00
2018-08-11T01:08:06.014Z,99279.00
2018-08-11T01:10:35.567Z,99275.00
2018-08-11T01:13:05.514Z,99282.00
2018-08-11T01:15:35.573Z,99279.00
2018-08-11T01:18:05.174Z,99281.00
2018-08-11T01:20:34.814Z,99269.00
2018-08-11T01:23:04.373Z,99274.00
2018-08-11T01:25:34.014Z,99276.00
2018-08-11T01:28:03.634Z,99275.00
2018-08-11T01:30:33.268Z,99274.00
2018-08-11T01:33:02.974Z,99275.00
2018-08-11T01:35:32.634Z,99265.00
2018-08-11T01:38:02.214Z,99261.00
2018-08-11T01:40:32.174Z,99253.00
2018-08-11T01:43:01.934Z,99257.00
2018-08-11T01:45:31.514Z,99261.00
2018-08-11T01:48:01.089Z,99256.00
2018-08-11T01:50:31.136Z,99263.00
2018-08-11T01:53:00.914Z,99265.00
2018-08-11T01:55:30.734Z,99259.00
2018-08-11T01:58:00.297Z,99247.00
2018-08-11T02:00:29.934Z,99254.00
2018-08-11T02:02:59.634Z,99255.00
2018-08-11T02:05:29.234Z,99255.00
2018-08-11T02:07:58.874Z,99248.00
2018-08-11T02:10:29.014Z,99248.00
2018-08-11T02:12:59.034Z,99241.00
2018-08-11T02:15:28.974Z,99238.00
2018-08-11T02:17:58.515Z,99234.00
2018-08-11T02:20:28.154Z,99228.00
2018-08-11T02:22:58.194Z,99230.00
2018-08-11T02:25:28.037Z,99231.00
2018-08-11T02:27:57.734Z,99231.00
2018-08-11T02:30:27.736Z,99219.00
2018-08-11T02:32:57.394Z,99214.00
2018-08-11T02:35:27.274Z,99212.00
2018-08-11T02:37:57.116Z,99214.00
2018-08-11T02:40:26.835Z,99219.00
2018-08-11T02:42:56.394Z,99219.00
2018-08-11T02:45:26.014Z,99214.00
2018-08-11T02:47:55.674Z,99223.00
2018-08-11T02:50:25.235Z,99217.00
2018-08-11T02:52:54.894Z,99221.00
2018-08-11T02:55:24.694Z,99211.00
2018-08-11T02:57:54.432Z,99217.00
2018-08-11T03:00:23.994Z,99216.00
2018-08-11T03:02:53.768Z,99209.00
2018-08-11T03:05:23.674Z,99215.00
2018-08-11T03:07:53.334Z,99212.00
2018-08-11T03:10:22.998Z,99209.00
2018-08-11T03:12:52.855Z,99216.00
2018-08-11T03:15:22.374Z,99211.00
2018-08-11T03:17:51.979Z,99217.00
2018-08-11T03:20:21.643Z,99225.00
2018-08-11T03:22:51.414Z,99233.00
2018-08-11T03:25:21.043Z,99237.00
2018-08-11T03:27:50.853Z,99231.00
2018-08-11T03:30:20.383Z,99230.00
2018-08-11T03:32:50.311Z,99230.00
2018-08-11T03:35:19.773Z,99234.00
2018-08-11T03:37:49.614Z,99236.00
2018-08-11T03:40:19.133Z,99233.00
2018-08-11T03:42:48.871Z,99228.00
2018-08-11T03:45:18.373Z,99227.00
2018-08-11T03:47:48.552Z,99229.00
2018-08-11T03:50:18.053Z,99226.00
2018-08-11T03:52:47.514Z,99226.00
2018-08-11T03:55:17.234Z,99223.00
2018-08-11T03:57:47.214Z,99230.00
2018-08-11T04:00:16.953Z,99227.00
2018-08-11T04:02:46.813Z,99223.00
2018-08-11T04:05:16.827Z,99232.00
2018-08-11T04:07:46.513Z,99234.00
2018-08-11T04:10:16.133Z,99230.00
2018-08-11T04:12:45.634Z,99236.00
2018-08-11T04:15:15.554Z,99237.00
2018-08-11T04:17:45.213Z,99227.00
2018-08-11T04:20:14.813Z,99226.00
2018-08-11T04:22:44.914Z,99227.00
2018-08-11T04:25:14.373Z,99222.00
2018-08-11T04:27:43.815Z,99219.00
2018-08-11T04:30:13.203Z,99225.00
2018-08-11T04:32:42.957Z,99222.00
2018-08-11T04:35:12.434Z,99237.00
2018-08-11T04:37:41.934Z,99225.00
2018-08-11T04:40:11.834Z,99227.00
2018-08-11T04:42:41.786Z,99229.00
2018-08-11T04:45:11.568Z,99236.00
2018-08-11T04:47:41.553Z,99225.00
2018-08-11T04:50:11.474Z,99231.00
2018-08-11T04:52:40.934Z,99240.00
2018-08-11T04:55:10.454Z,99237.00
2018-08-11T04:57:39.933Z,99239.00
2018-08-11T05:00:09.744Z,99234.00
2018-08-11T05:02:39.538Z,99235.00
2018-08-11T05:05:09.998Z,99232.00
2018-08-11T05:07:39.473Z,99233.00
2018-08-11T05:10:09.634Z,99240.00
2018-08-11T05:12:39.228Z,99239.00
2018-08-11T05:15:09.354Z,99239.00
2018-08-11T05:17:38.973Z,99238.00
2018-08-11T05:20:08.552Z,99235.00
2018-08-11T05:22:38.293Z,99242.00
2018-08-11T05:25:07.953Z,99237.00
2018-08-11T05:27:37.654Z,99237.00
2018-08-11T05:30:08.273Z,99241.00
2018-08-11T05:32:38.440Z,99242.00
2018-08-11T05:35:08.861Z,99240.00
2018-08-11T05:37:38.254Z,99244.00
2018-08-11T05:40:07.921Z,99249.00
2018-08-11T05:42:37.694Z,99251.00
2018-08-11T05:45:07.494Z,99250.00
2018-08-11T05:47:36.994Z,99255.00
2018-08-11T05:50:06.954Z,99256.00
2018-08-11T05:52:36.403Z,99262.00
2018-08-11T05:55:06.299Z,99253.00
2018-08-11T05:57:35.814Z,99256.00
2018-08-11T06:00:08.434Z,99264.00
2018-08-11T06:02:38.350Z,99255.00
2018-08-11T06:05:08.360Z,99262.00
2018-08-11T06:07:37.992Z,99260.00
2018-08-11T06:10:09.670Z,99255.00
2018-08-11T06:12:39.590Z,99263.00
2018-08-11T06:15:09.431Z,99266.00
2018-08-11T06:17:39.030Z,99270.00
2018-08-11T06:20:09.770Z,99268.00
2018-08-11T06:22:39.425Z,99271.00
2018-08-11T06:25:10.579Z,99279.00
2018-08-11T06:27:40.794Z,99263.00
2018-08-11T06:30:11.130Z,99269.00
2018-08-11T06:32:40.568Z,99274.00
2018-08-11T06:35:10.169Z,99271.00
2018-08-11T06:37:39.642Z,99279.00
2018-08-11T06:40:09.197Z,99273.00
2018-08-11T06:42:38.614Z,99281.00
2018-08-11T06:45:08.371Z,99271.00
2018-08-11T06:47:37.933Z,99272.00
2018-08-11T06:50:07.894Z,99278.00
2018-08-11T06:52:37.373Z,99275.00
2018-08-11T06:55:07.334Z,99276.00
2018-08-11T06:57:36.873Z,99277.00
2018-08-11T07:00:06.614Z,99279.00
2018-08-11T07:02:36.194Z,99279.00
2018-08-11T07:05:05.993Z,99280.00
2018-08-11T07:07:35.613Z,99267.00
2018-08-11T07:10:05.693Z,99277.00
2018-08-11T07:12:35.434Z,99274.00
2018-08-11T07:15:05.861Z,99273.00
2018-08-11T07:17:35.414Z,99272.00
2018-08-11T07:20:05.134Z,99273.00
2018-08-11T07:22:34.734Z,99280.00
2018-08-11T07:25:04.994Z,99280.00
2018-08-11T07:27:34.874Z,99286.00
2018-08-11T07:30:04.771Z,99280.00
2018-08-11T07:32:34.354Z,99278.00
2018-08-11T07:35:04.114Z,99282.00
2018-08-11T07:37:33.834Z,99281.00
2018-08-11T07:40:03.456Z,99283.00
2018-08-11T07:42:33.514Z,99278.00
2018-08-11T07:45:03.114Z,99280.00
2018-08-11T07:47:32.685Z,99278.00
2018-08-11T07:50:02.174Z,99281.00
2018-08-11T07:52:31.715Z,99285.00
2018-08-11T07:55:01.697Z,99282.00
2018-08-11T07:57:31.456Z,99283.00
2018-08-11T08:00:01.389Z,99288.00
2018-08-11T08:02:31.209Z,99285.00
2018-08-11T08:05:01.236Z,99288.00
2018-08-11T08:07:30.909Z,99284.00
2018-08-11T08:10:00.450Z,99292.00
2018-08-11T08:12:30.029Z,99286.00
2018-08-11T08:14:59.750Z,99287.00
2018-08-11T08:17:29.329Z,99282.00
2018-08-11T08:19:58.929Z,99281.00
2018-08-11T08:22:28.508Z,99270.00
2018-08-11T08:24:58.275Z,99271.00
2018-08-11T08:27:28.514Z,99266.00
2018-08-11T08:29:58.435Z,99266.00
2018-08-11T08:32:28.134Z,99265.00
2018-08-11T08:34:57.595Z,99260.00
2018-08-11T08:37:27.400Z,99259.00
2018-08-11T08:39:57.381Z,99268.00
2018-08-11T08:42:27.344Z,99255.00
2018-08-11T08:44:57.004Z,99255.00
2018-08-11T08:47:26.641Z,99267.00
2018-08-11T08:49:56.194Z,99259.00
2018-08-11T08:52:25.954Z,99260.00
2018-08-11T08:54:55.414Z,99247.00
2018-08-11T08:57:25.108Z,99241.00
2018-08-11T08:59:54.694Z,99250.00
2018-08-11T09:02:24.345Z,99243.00
2018-08-11T09:04:53.990Z,99245.00
2018-08-11T09:07:23.545Z,99244.00
2018-08-11T09:09:53.412Z,99244.00
2018-08-11T09:12:23.385Z,99242.00
2018-08-11T09:14:53.206Z,99240.00
2018-08-11T09:17:22.705Z,99232.00
2018-08-11T09:19:52.296Z,99230.00
2018-08-11T09:22:22.755Z,99223.00
2018-08-11T09:24:52.524Z,99226.00
2018-08-11T09:27:22.034Z,99226.00
2018-08-11T09:29:51.585Z,99225.00
2018-08-11T09:32:21.257Z,99219.00
2018-08-11T09:34:50.837Z,99227.00
2018-08-11T09:37:20.278Z,99220.00
2018-08-11T09:39:49.839Z,99222.00
2018-08-11T09:42:19.599Z,99220.00
2018-08-11T09:44:49.098Z,99217.00
2018-08-11T09:47:18.619Z,99223.00
2018-08-11T09:49:48.078Z,99219.00
2018-08-11T09:52:17.439Z,99213.00
2018-08-11T09:54:47.199Z,99216.00
2018-08-11T09:57:16.722Z,99207.00
2018-08-11T09:59:46.230Z,99210.00
2018-08-11T10:02:18.785Z,99209.00
2018-08-11T10:04:48.564Z,99205.00
2018-08-11T10:07:18.385Z,99203.00
2018-08-11T10:09:48.085Z,99202.00
2018-08-11T10:12:17.485Z,99200.00
2018-08-11T10:14:47.026Z,99206.00
2018-08-11T10:17:17.128Z,99203.00
2018-08-11T10:19:46.985Z,99199.00
2018-08-11T10:22:16.645Z,99201.00
2018-08-11T10:24:46.166Z,99197.00
2018-08-11T10:27:16.015Z,99197.00
2018-08-11T10:29:45.575Z,99194.00
2018-08-11T10:32:15.126Z,99191.00
2018-08-11T10:34:44.665Z,99190.00
2018-08-11T10:37:14.413Z,99184.00
2018-08-11T10:39:43.971Z,99181.00
2018-08-11T10:42:13.493Z,99180.00
2018-08-11T10:44:43.174Z,99181.00
2018-08-11T10:47:13.101Z,99181.00
2018-08-11T10:49:43.130Z,99180.00
2018-08-11T10:52:13.259Z,99166.00
2018-08-11T10:54:42.772Z,99175.00
2018-08-11T10:57:12.293Z,99173.00
2018-08-11T10:59:41.830Z,99172.00
2018-08-11T11:02:11.276Z,99166.00
2018-08-11T11:04:40.759Z,99155.00
2018-08-11T11:07:10.872Z,99168.00
2018-08-11T11:09:40.353Z,99157.00
2018-08-11T11:12:09.938Z,99159.00
2018-08-11T11:14:39.490Z,99145.00
2018-08-11T11:17:09.293Z,99158.00
2018-08-11T11:19:38.922Z,99144.00
2018-08-11T11:22:08.531Z,99148.00
2018-08-11T11:24:37.896Z,99150.00
2018-08-11T11:27:07.558Z,99152.00
2018-08-11T11:29:37.097Z,99145.00
2018-08-11T11:32:08.075Z,99136.00
2018-08-11T11:34:37.651Z,99142.00
2018-08-11T11:37:07.040Z,99131.00
2018-08-11T11:39:36.519Z,99136.00
2018-08-11T11:42:06.400Z,99129.00
2018-08-11T11:44:35.918Z,99133.00
2018-08-11T11:47:05.382Z,99130.00
2018-08-11T11:49:34.850Z,99134.00
2018-08-11T11:52:04.633Z,99122.00
2018-08-11T11:54:34.161Z,99120.00
2018-08-11T11:57:03.551Z,99132.00
2018-08-11T11:59:33.611Z,99124.00
2018-08-11T12:02:03.547Z,99130.00
2018-08-11T12:04:33.260Z,99130.00
2018-08-11T12:07:03.068Z,99132.00
2018-08-11T12:09:32.872Z,99126.00
2018-08-11T12:12:02.145Z,99126.00
2018-08-11T12:14:32.026Z,99117.00
2018-08-11T12:17:01.255Z,99121.00
2018-08-11T12:19:30.957Z,99119.00
2018-08-11T12:22:00.426Z,99115.00
2018-08-11T12:24:29.885Z,99115.00
2018-08-11T12:26:59.445Z,99111.00
2018-08-11T12:29:28.965Z,99106.00
2018-08-11T12:31:58.385Z,99105.00
2018-08-11T12:34:27.965Z,99114.00
2018-08-11T12:36:57.385Z,99106.00
2018-08-11T12:39:26.932Z,99104.00
2018-08-11T12:41:56.505Z,99103.00
2018-08-11T12:44:25.964Z,99090.00
2018-08-11T12:46:56.109Z,99091.00
2018-08-11T12:49:25.665Z,99093.00
2018-08-11T12:51:55.285Z,99092.00
2018-08-11T12:54:25.363Z,99084.00
2018-08-11T12:56:54.845Z,99082.00
2018-08-11T12:59:24.446Z,99077.00
2018-08-11T13:01:54.466Z,99085.00
2018-08-11T13:04:24.005Z,99081.00
2018-08-11T13:06:53.494Z,99083.00
2018-08-11T13:09:23.122Z,99076.00
2018-08-11T13:11:52.886Z,99061.00
2018-08-11T13:14:22.646Z,99063.00
2018-08-11T13:16:52.166Z,99060.00
2018-08-11T13:19:21.765Z,99063.00
2018-08-11T13:21:51.285Z,99050.00
2018-08-11T13:24:20.868Z,99057.00
2018-08-11T13:26:50.522Z,99058.00
2018-08-11T13:29:20.066Z,99064.00
2018-08-11T13:31:49.646Z,99057.00
2018-08-11T13:34:19.265Z,99057.00
2018-08-11T13:36:48.806Z,99044.00
2018-08-11T13:39:18.346Z,99033.00
2018-08-11T13:41:49.325Z,99031.00
2018-08-11T13:44:19.865Z,99034.00
2018-08-11T13:46:49.425Z,99034.00
2018-08-11T13:49:18.985Z,99033.00
2018-08-11T13:51:48.585Z,99036.00
2018-08-11T13:54:18.146Z,99037.00
2018-08-11T13:56:47.646Z,99019.00
2018-08-11T13:59:17.132Z,99024.00
2018-08-11T14:01:46.692Z,99026.00
2018-08-11T14:04:16.234Z,99026.00
2018-08-11T14:06:45.834Z,99020.00
2018-08-11T14:09:15.414Z,99011.00
2018-08-11T14:11:45.274Z,99024.00
2018-08-11T14:14:15.015Z,99028.00
2018-08-11T14:16:45.015Z,99022.00
2018-08-11T14:19:14.576Z,99013.00
2018-08-11T14:21:44.157Z,99010.00
2018-08-11T14:24:13.795Z,99009.00
2018-08-11T14:26:43.234Z,99007.00
2018-08-11T14:29:13.134Z,99005.00
2018-08-11T14:31:42.714Z,99007.00
2018-08-11T14:34:12.374Z,98994.00
2018-08-11T14:36:42.014Z,99005.00
2018-08-11T14:39:12.095Z,99008.00
2018-08-11T14:41:41.675Z,98999.00
2018-08-11T14:44:11.674Z,98995.00
2018-08-11T14:46:41.413Z,98994.00
2018-08-11T14:49:11.014Z,98997.00
2018-08-11T14:51:40.753Z,98991.00
2018-08-11T14:54:10.374Z,98998.00
2018-08-11T14:56:40.154Z,98991.00
2018-08-11T14:59:09.593Z,98990.00
2018-08-11T15:01:39.374Z,98992.00
2018-08-11T15:04:09.334Z,98993.00
2018-08-11T15:06:38.793Z,98987.00
2018-08-11T15:09:10.394Z,98983.00
2018-08-11T15:11:40.294Z,98990.00
2018-08-11T15:14:09.682Z,98991.00
2018-08-11T15:16:39.294Z,98988.00
2018-08-11T15:19:08.919Z,98983.00
2018-08-11T15:21:38.597Z,98989.00
2018-08-11T15:24:08.467Z,98990.00
2018-08-11T15:26:38.215Z,98986.00
2018-08-11T15:29:08.246Z,98985.00
2018-08-11T15:31:37.644Z,98985.00
2018-08-11T15:34:07.188Z,98981.00
2018-08-11T15:36:36.751Z,98975.00
2018-08-11T15:39:11.312Z,98970.00
2018-08-11T15:41:40.967Z,98972.00
2018-08-11T15:44:10.563Z,98975.00
2018-08-11T15:46:40.202Z,98971.00
2018-08-11T15:49:09.981Z,98976.00
2018-08-11T15:51:39.762Z,98976.00
2018-08-11T15:54:09.422Z,98967.00
2018-08-11T15:56:39.062Z,98962.00
2018-08-11T15:59:08.561Z,98964.00
2018-08-11T16:01:37.981Z,98968.00
2018-08-11T16:04:07.686Z,98969.00
2018-08-11T16:06:37.346Z,98975.00
2018-08-11T16:09:09.667Z,98969.00
2018-08-11T16:11:39.086Z,98969.00
2018-08-11T16:14:09.112Z,98971.00
2018-08-11T16:16:38.672Z,98971.00
2018-08-11T16:19:08.254Z,98983.00
2018-08-11T16:21:37.856Z,98978.00
2018-08-11T16:24:07.553Z,98985.00
2018-08-11T16:26:36.994Z,98984.00
2018-08-11T16:29:06.789Z,98981.00
2018-08-11T16:31:36.330Z,98982.00
2018-08-11T16:34:06.130Z,98978.00
2018-08-11T16:36:36.091Z,98971.00
2018-08-11T16:39:08.950Z,98975.00
2018-08-11T16:41:39.069Z,98981.00
2018-08-11T16:44:08.610Z,98978.00
2018-08-11T16:46:38.530Z,98972.00
2018-08-11T16:49:08.170Z,98975.00
2018-08-11T16:51:37.989Z,98981.00
2018-08-11T16:54:07.769Z,98985.00
2018-08-11T16:56:37.477Z,98985.00
2018-08-11T16:59:07.084Z,98991.00
2018-08-11T17:01:36.610Z,98985.00
2018-08-11T17:04:06.290Z,98988.00
2018-08-11T17:06:35.809Z,99003.00
2018-08-11T17:09:10.232Z,98995.00
2018-08-11T17:11:39.710Z,98983.00
2018-08-11T17:14:09.129Z,98986.00
2018-08-11T17:16:38.669Z,98987.00
2018-08-11T17:19:08.089Z,98995.00
2018-08-11T17:21:37.769Z,98987.00
2018-08-11T17:24:07.530Z,98992.00
2018-08-11T17:26:37.189Z,98995.00
2018-08-11T17:29:06.774Z,99003.00
2018-08-11T17:31:36.309Z,99002.00
2018-08-11T17:34:05.929Z,98987.00
2018-08-11T17:36:35.473Z,98990.00
2018-08-11T17:39:08.110Z,98996.00
2018-08-11T17:41:37.671Z,98996.00
2018-08-11T17:44:07.250Z,99000.00
2018-08-11T17:46:36.849Z,98996.00
2018-08-11T17:49:06.428Z,99004.00
2018-08-11T17:51:36.609Z,98998.00
2018-08-11T17:54:06.591Z,99004.00
2018-08-11T17:56:36.534Z,99009.00
2018-08-11T17:59:06.368Z,99007.00
2018-08-11T18:01:36.549Z,99001.00
2018-08-11T18:04:06.416Z,99008.00
2018-08-11T18:06:36.430Z,99004.00
2018-08-11T18:09:10.246Z,99004.00
2018-08-11T18:11:40.211Z,99005.00
2018-08-11T18:14:10.410Z,99018.00
2018-08-11T18:16:39.989Z,99016.00
2018-08-11T18:19:09.570Z,99016.00
2018-08-11T18:21:39.129Z,99020.00
2018-08-11T18:24:08.789Z,99026.00
2018-08-11T18:26:38.209Z,99027.00
2018-08-11T18:29:07.870Z,99029.00
2018-08-11T18:31:37.491Z,99031.00
2018-08-11T18:34:07.630Z,99030.00
2018-08-11T18:36:37.232Z,99035.00
2018-08-11T18:39:11.749Z,99038.00
2018-08-11T18:41:41.530Z,99040.00
2018-08-11T18:44:11.590Z,99037.00
2018-08-11T18:46:41.369Z,99039.00
2018-08-11T18:49:10.949Z,99041.00
2018-08-11T18:51:40.509Z,99040.00
2018-08-11T18:54:10.090Z,99048.00
2018-08-11T18:56:39.649Z,99051.00
2018-08-11T18:59:09.189Z,99047.00
2018-08-11T19:01:38.809Z,99052.00
2018-08-11T19:04:08.629Z,99050.00
2018-08-11T19:06:38.539Z,99057.00
2018-08-11T19:09:11.989Z,99059.00
2018-08-11T19:11:42.149Z,99056.00
2018-08-11T19:14:11.881Z,99069.00
2018-08-11T19:16:41.481Z,99070.00
2018-08-11T19:19:11.002Z,99067.00
2018-08-11T19:21:41.241Z,99067.00
2018-08-11T19:24:10.826Z,99072.00
2018-08-11T19:26:40.623Z,99063.00
2018-08-11T19:29:10.235Z,99073.00
2018-08-11T19:31:39.782Z,99070.00
2018-08-11T19:34:09.443Z,99068.00
2018-08-11T19:36:39.142Z,99064.00
2018-08-11T19:39:11.704Z,99070.00
2018-08-11T19:41:42.286Z,99075.00
2018-08-11T19:44:12.289Z,99064.00
2018-08-11T19:46:41.939Z,99072.00
2018-08-11T19:49:11.515Z,99078.00
2018-08-11T19:51:41.361Z,99076.00
2018-08-11T19:54:11.001Z,99080.00
2018-08-11T19:56:40.521Z,99083.00
2018-08-11T19:59:10.064Z,99083.00
2018-08-11T20:01:39.667Z,99087.00
2018-08-11T20:04:11.041Z,99086.00
2018-08-11T20:06:40.701Z,99094.00
2018-08-11T20:09:11.483Z,99091.00
2018-08-11T20:11:41.142Z,99089.00
2018-08-11T20:14:10.880Z,99089.00
2018-08-11T20:16:40.582Z,99094.00
2018-08-11T20:19:10.317Z,99092.00
2018-08-11T20:21:39.921Z,99092.00
2018-08-11T20:24:09.442Z,99093.00
2018-08-11T20:26:38.959Z,99098.00
2018-08-11T20:29:08.780Z,99097.00
2018-08-11T20:31:38.301Z,99102.00
2018-08-11T20:34:08.462Z,99101.00
2018-08-11T20:36:38.062Z,99102.00
2018-08-11T20:39:12.601Z,99101.00
2018-08-11T20:41:42.601Z,99104.00
2018-08-11T20:44:12.250Z,99100.00
2018-08-11T20:46:42.281Z,99108.00
2018-08-11T20:49:11.848Z,99112.00
2018-08-11T20:51:41.480Z,99116.00
2018-08-11T20:54:11.292Z,99111.00
2018-08-11T20:56:40.841Z,99113.00
2018-08-11T20:59:10.482Z,99120.00
2018-08-11T21:01:40.124Z,99121.00
2018-08-11T21:04:09.661Z,99122.00
2018-08-11T21:06:39.743Z,99122.00
2018-08-11T21:09:12.282Z,99125.00
2018-08-11T21:11:41.977Z,99126.00
2018-08-11T21:14:11.557Z,99127.00
2018-08-11T21:16:41.216Z,99133.00
2018-08-11T21:19:10.976Z,99132.00
2018-08-11T21:21:40.796Z,99133.00
2018-08-11T21:24:10.540Z,99135.00
2018-08-11T21:26:46.796Z,99136.00
2018-08-11T21:29:16.496Z,99131.00
2018-08-11T21:31:46.096Z,99130.00
2018-08-11T21:34:15.712Z,99133.00
2018-08-11T21:36:45.156Z,99129.00
2018-08-11T21:39:14.676Z,99126.00
2018-08-11T21:41:44.296Z,99133.00
2018-08-11T21:44:13.856Z,99129.00
2018-08-11T21:46:43.795Z,99133.00
2018-08-11T21:49:13.736Z,99125.00
2018-08-11T21:51:43.536Z,99139.00
2018-08-11T21:54:13.463Z,99128.00
2018-08-11T21:56:43.097Z,99122.00
2018-08-11T21:59:12.587Z,99128.00
2018-08-11T22:01:42.267Z,99126.00
2018-08-11T22:04:11.867Z,99126.00
2018-08-11T22:06:41.619Z,99121.00
2018-08-11T22:09:13.487Z,99132.00
2018-08-11T22:11:43.287Z,99128.00
2018-08-11T22:14:12.940Z,99126.00
2018-08-11T22:16:42.449Z,99124.00
2018-08-11T22:19:11.947Z,99124.00
2018-08-11T22:21:41.599Z,99124.00
2018-08-11T22:24:11.112Z,99124.00
2018-08-11T22:26:40.626Z,99121.00
2018-08-11T22:29:10.646Z,99127.00
2018-08-11T22:31:40.267Z,99116.00
2018-08-11T22:34:09.888Z,99116.00
2018-08-11T22:36:39.448Z,99119.00
2018-08-11T22:39:10.647Z,99115.00
2018-08-11T22:41:40.587Z,99112.00
2018-08-11T22:44:10.584Z,99112.00
2018-08-11T22:46:40.147Z,99115.00
2018-08-11T22:49:09.794Z,99110.00
2018-08-11T22:51:39.339Z,99108.00
2018-08-11T22:54:09.167Z,99103.00
2018-08-11T22:56:39.119Z,99109.00
2018-08-11T22:59:09.950Z,99112.00
2018-08-11T23:01:40.327Z,99106.00
2018-08-11T23:04:11.068Z,99104.00
2018-08-11T23:06:41.185Z,99109.00
2018-08-11T23:09:11.688Z,99113.00
2018-08-11T23:11:41.308Z,99114.00
2018-08-11T23:14:11.387Z,99111.00
2018-08-11T23:16:40.827Z,99106.00
2018-08-11T23:19:10.407Z,99111.00
2018-08-11T23:21:40.434Z,99102.00
2018-08-11T23:24:10.248Z,99103.00
2018-08-11T23:26:39.805Z,99108.00
2018-08-11T23:29:09.695Z,99110.00
2018-08-11T23:31:39.708Z,99105.00
2018-08-11T23:34:09.208Z,99107.00
2018-08-11T23:36:38.807Z,99098.00
2018-08-11T23:39:10.247Z,99102.00
2018-08-11T23:41:40.548Z,99097.00
2018-08-11T23:44:10.287Z,99099.00
2018-08-11T23:46:39.887Z,99097.00
2018-08-11T23:49:09.507Z,99097.00
2018-08-11T23:51:38.907Z,99094.00
2018-08-11T23:54:08.527Z,99091.00
2018-08-11T23:56:38.248Z,99096.00
2018-08-11T23:59:07.767Z,99087.00
